createdAt,value
2018-12-06T00:01:05.206Z,5.10
2018-12-06T00:03:45.592Z,5.70
2018-12-06T00:06:26.423Z,4.90
2018-12-06T00:09:07.223Z,5.13
2018-12-06T00:11:48.451Z,5.10
2018-12-06T00:14:29.431Z,4.80
2018-12-06T00:17:09.820Z,4.80
2018-12-06T00:19:50.692Z,5.47
2018-12-06T00:22:31.738Z,4.97
2018-12-06T00:25:13.050Z,5.10
2018-12-06T00:27:53.641Z,5.30
2018-12-06T00:30:34.281Z,5.23
2018-12-06T00:33:14.911Z,5.23
2018-12-06T00:35:55.214Z,6.30
2018-12-06T00:38:35.801Z,4.70
2018-12-06T00:41:16.459Z,5.80
2018-12-06T00:43:57.357Z,4.67
2018-12-06T00:46:37.672Z,4.87
2018-12-06T00:49:18.734Z,5.30
2018-12-06T00:51:59.144Z,4.80
2018-12-06T00:54:39.906Z,4.53
2018-12-06T00:57:21.156Z,4.57
2018-12-06T01:00:01.977Z,4.87
2018-12-06T01:02:42.615Z,5.37
2018-12-06T01:05:22.800Z,5.13
2018-12-06T01:08:03.465Z,4.20
2018-12-06T01:10:43.777Z,4.50
2018-12-06T01:13:24.772Z,4.87
2018-12-06T01:16:05.452Z,4.50
2018-12-06T01:18:45.965Z,4.53
2018-12-06T01:21:26.522Z,4.03
2018-12-06T01:24:07.857Z,4.20
2018-12-06T01:26:48.368Z,4.80
2018-12-06T01:29:29.200Z,4.80
2018-12-06T01:32:10.219Z,4.13
2018-12-06T01:34:50.653Z,4.50
2018-12-06T01:37:32.069Z,4.00
2018-12-06T01:40:12.765Z,4.90
2018-12-06T01:42:53.859Z,4.10
2018-12-06T01:45:34.763Z,4.47
2018-12-06T01:48:13.805Z,4.70
2018-12-06T01:51:01.866Z,4.10
2018-12-06T01:53:49.702Z,4.37
2018-12-06T01:56:37.541Z,3.87
2018-12-06T01:59:25.118Z,4.10
2018-12-06T02:02:12.682Z,4.37
2018-12-06T02:05:00.490Z,4.40
2018-12-06T02:07:48.370Z,3.83
2018-12-06T02:10:36.201Z,3.90
2018-12-06T02:13:24.102Z,4.70
2018-12-06T02:16:11.694Z,4.53
2018-12-06T02:18:59.249Z,4.37
2018-12-06T02:21:47.139Z,3.93
2018-12-06T02:24:34.775Z,4.20
2018-12-06T02:27:22.605Z,4.53
2018-12-06T02:30:10.901Z,6.07
2018-12-06T02:32:58.815Z,3.77
2018-12-06T02:35:46.706Z,3.97
2018-12-06T02:38:34.253Z,3.90
2018-12-06T02:41:22.116Z,4.30
2018-12-06T02:44:09.787Z,5.00
2018-12-06T02:46:57.596Z,4.27
2018-12-06T02:49:45.503Z,5.30
2018-12-06T02:52:33.644Z,4.47
2018-12-06T02:55:21.475Z,5.73
2018-12-06T02:58:09.618Z,5.00
2018-12-06T03:00:57.978Z,5.00
2018-12-06T03:03:45.619Z,4.87
2018-12-06T03:06:33.182Z,4.97
2018-12-06T03:09:20.726Z,5.47
2018-12-06T03:12:08.919Z,5.80
2018-12-06T03:14:56.475Z,4.70
2018-12-06T03:20:52.948Z,5.47
2018-12-06T03:23:40.744Z,5.80
2018-12-06T03:26:28.304Z,5.47
2018-12-06T03:29:16.317Z,5.73
2018-12-06T03:32:03.958Z,5.70
2018-12-06T03:34:53.409Z,6.00
2018-12-06T03:37:40.979Z,5.93
2018-12-06T03:40:28.552Z,6.73
2018-12-06T03:43:16.405Z,6.83
2018-12-06T03:46:03.971Z,8.00
2018-12-06T03:48:32.303Z,8.07
2018-12-06T03:51:20.450Z,8.77
2018-12-06T03:54:08.258Z,9.87
2018-12-06T03:56:55.824Z,9.80
2018-12-06T03:59:43.654Z,9.37
2018-12-06T04:02:31.218Z,8.10
2018-12-06T04:05:19.027Z,9.03
2018-12-06T04:08:06.599Z,9.00
2018-12-06T04:10:54.176Z,8.20
2018-12-06T04:13:41.727Z,8.67
2018-12-06T04:16:29.378Z,8.13
2018-12-06T04:19:17.196Z,9.37
2018-12-06T04:22:05.022Z,8.13
2018-12-06T04:24:52.851Z,8.03
2018-12-06T04:27:40.998Z,10.23
2018-12-06T04:30:28.636Z,9.53
2018-12-06T04:33:16.766Z,10.33
2018-12-06T04:36:04.605Z,9.30
2018-12-06T04:38:52.164Z,8.57
2018-12-06T04:41:59.184Z,8.80
2018-12-06T04:44:47.055Z,9.33
2018-12-06T04:47:34.889Z,9.40
2018-12-06T04:50:22.726Z,8.90
2018-12-06T04:53:10.562Z,8.87
2018-12-06T04:55:58.120Z,8.43
2018-12-06T04:58:45.687Z,7.83
2018-12-06T05:01:33.247Z,6.90
2018-12-06T05:04:20.866Z,6.67
2018-12-06T05:07:08.485Z,7.20
2018-12-06T05:09:56.042Z,6.80
2018-12-06T05:12:43.899Z,7.63
2018-12-06T05:15:31.447Z,9.40
2018-12-06T05:18:19.347Z,6.80
2018-12-06T05:21:07.182Z,6.40
2018-12-06T05:23:55.027Z,6.67
2018-12-06T05:26:42.591Z,8.53
2018-12-06T05:29:30.150Z,7.63
2018-12-06T05:32:17.719Z,8.60
2018-12-06T05:35:06.059Z,9.70
2018-12-06T05:37:53.634Z,9.77
2018-12-06T05:40:41.190Z,9.43
2018-12-06T05:43:28.770Z,9.17
2018-12-06T05:46:16.335Z,9.43
2018-12-06T05:49:04.219Z,9.80
2018-12-06T05:51:52.364Z,10.47
2018-12-06T05:54:59.630Z,10.13
2018-12-06T05:57:48.290Z,10.80
2018-12-06T06:00:40.576Z,9.93
2018-12-06T06:03:21.148Z,11.07
2018-12-06T06:06:01.873Z,11.73
2018-12-06T06:08:42.679Z,11.10
2018-12-06T06:11:23.624Z,10.90
2018-12-06T06:14:04.106Z,11.43
2018-12-06T06:16:45.066Z,12.67
2018-12-06T06:19:25.865Z,12.80
2018-12-06T06:22:06.666Z,12.70
2018-12-06T06:24:47.522Z,14.17
2018-12-06T06:27:28.047Z,12.60
2018-12-06T06:30:08.392Z,13.27
2018-12-06T06:32:49.467Z,14.70
2018-12-06T06:35:30.016Z,13.03
2018-12-06T06:38:11.035Z,13.80
2018-12-06T06:40:52.158Z,13.90
2018-12-06T06:43:33.451Z,14.77
2018-12-06T06:46:14.334Z,16.30
2018-12-06T06:48:55.002Z,15.13
2018-12-06T06:51:35.106Z,16.03
2018-12-06T06:54:15.517Z,13.27
2018-12-06T06:56:55.906Z,13.70
2018-12-06T06:59:36.695Z,15.53
2018-12-06T07:02:17.589Z,15.63
2018-12-06T07:04:58.403Z,13.60
2018-12-06T07:07:38.881Z,15.33
2018-12-06T07:10:19.680Z,16.33
2018-12-06T07:13:00.923Z,13.77
2018-12-06T07:15:42.153Z,15.60
2018-12-06T07:18:23.109Z,15.90
2018-12-06T07:21:04.330Z,15.07
2018-12-06T07:23:45.192Z,15.87
2018-12-06T07:26:26.478Z,14.17
2018-12-06T07:29:05.391Z,16.17
2018-12-06T07:31:52.972Z,16.03
2018-12-06T07:34:40.554Z,14.90
2018-12-06T07:37:28.451Z,14.40
2018-12-06T07:40:16.591Z,15.83
2018-12-06T07:43:04.266Z,14.47
2018-12-06T07:46:07.698Z,15.13
2018-12-06T07:48:55.421Z,12.87
2018-12-06T07:51:42.989Z,14.73
2018-12-06T07:54:30.573Z,15.37
2018-12-06T07:57:18.136Z,15.67
2018-12-06T08:00:07.003Z,15.30
2018-12-06T08:02:54.555Z,15.00
2018-12-06T08:05:42.480Z,15.03
2018-12-06T08:08:30.315Z,15.67
2018-12-06T08:11:17.900Z,15.67
2018-12-06T08:14:05.786Z,16.40
2018-12-06T08:16:46.536Z,17.33
2018-12-06T08:19:26.963Z,16.40
2018-12-06T08:22:07.289Z,15.87
2018-12-06T08:24:47.836Z,17.30
2018-12-06T08:27:29.062Z,16.80
2018-12-06T08:30:10.065Z,15.20
2018-12-06T08:32:50.356Z,15.83
2018-12-06T08:35:31.690Z,14.07
2018-12-06T08:38:12.381Z,14.90
2018-12-06T08:40:53.250Z,13.77
2018-12-06T08:43:34.229Z,13.70
2018-12-06T08:46:14.803Z,14.10
2018-12-06T08:49:02.807Z,13.87
2018-12-06T08:51:38.347Z,11.27
2018-12-06T08:54:18.765Z,11.90
2018-12-06T08:56:59.342Z,9.47
2018-12-06T08:59:40.457Z,9.80
2018-12-06T09:02:21.215Z,8.03
2018-12-06T09:05:02.190Z,9.97
2018-12-06T09:07:42.723Z,10.33
2018-12-06T09:10:23.471Z,8.70
2018-12-06T09:13:03.943Z,9.93
2018-12-06T09:15:45.091Z,10.73
2018-12-06T09:18:26.391Z,10.73
2018-12-06T09:21:07.488Z,12.33
2018-12-06T09:23:48.242Z,12.60
2018-12-06T09:26:29.507Z,12.67
2018-12-06T09:29:10.025Z,12.70
2018-12-06T09:31:50.349Z,12.63
2018-12-06T09:34:30.797Z,11.63
2018-12-06T09:37:11.388Z,11.40
2018-12-06T09:39:51.776Z,10.33
2018-12-06T09:42:31.902Z,10.67
2018-12-06T09:45:12.526Z,9.80
2018-12-06T09:47:53.043Z,9.20
2018-12-06T09:50:33.760Z,8.23
2018-12-06T09:53:14.392Z,9.27
2018-12-06T09:55:54.788Z,8.17
2018-12-06T09:58:35.662Z,7.50
2018-12-06T10:01:16.352Z,6.57
2018-12-06T10:03:57.154Z,6.30
2018-12-06T10:06:38.013Z,6.63
2018-12-06T10:09:18.406Z,5.93
2018-12-06T10:12:00.389Z,5.87
2018-12-06T10:14:41.099Z,4.50
2018-12-06T10:26:25.751Z,3.90
2018-12-06T10:29:13.319Z,3.10
2018-12-06T10:32:01.164Z,3.20
2018-12-06T10:34:53.373Z,2.83
2018-12-06T10:37:38.221Z,3.03
2018-12-06T10:40:25.787Z,2.73
2018-12-06T10:43:13.381Z,2.73
2018-12-06T10:46:01.077Z,3.40
2018-12-06T10:48:48.675Z,2.90
2018-12-06T10:54:51.897Z,3.27
2018-12-06T10:57:39.821Z,3.00
2018-12-06T11:00:46.620Z,2.67
2018-12-06T11:03:53.417Z,2.60
2018-12-06T11:06:21.526Z,2.40
2018-12-06T11:09:09.117Z,3.43
2018-12-06T11:11:56.695Z,3.43
2018-12-06T11:14:44.271Z,3.23
2018-12-06T11:17:32.111Z,3.40
2018-12-06T11:20:19.776Z,4.17
2018-12-06T11:23:07.624Z,4.50
2018-12-06T11:25:55.192Z,4.53
2018-12-06T11:28:43.046Z,3.87
2018-12-06T11:31:30.604Z,3.47
2018-12-06T11:34:18.191Z,4.40
2018-12-06T11:37:05.830Z,3.80
2018-12-06T11:39:53.975Z,4.03
2018-12-06T11:42:41.558Z,3.60
2018-12-06T11:45:29.137Z,4.30
2018-12-06T11:48:16.955Z,3.73
2018-12-06T11:51:04.619Z,4.47
2018-12-06T11:56:49.836Z,4.20
2018-12-06T11:59:37.426Z,4.50
2018-12-06T12:02:25.035Z,5.10
2018-12-06T12:05:12.684Z,4.57
2018-12-06T12:08:02.083Z,4.80
2018-12-06T12:10:50.009Z,3.80
2018-12-06T12:13:37.614Z,3.90
2018-12-06T12:16:25.185Z,5.10
2018-12-06T12:19:12.780Z,4.77
2018-12-06T12:22:00.456Z,4.70
2018-12-06T12:24:48.062Z,4.50
2018-12-06T12:27:35.628Z,6.33
2018-12-06T12:30:23.229Z,3.93
2018-12-06T12:33:11.160Z,4.43
2018-12-06T12:35:58.999Z,5.23
2018-12-06T12:38:46.571Z,3.83
2018-12-06T12:41:34.154Z,4.27
2018-12-06T12:44:21.992Z,3.30
2018-12-06T12:47:09.588Z,3.40
2018-12-06T12:49:57.469Z,4.83
2018-12-06T12:52:45.055Z,5.30
2018-12-06T12:55:32.676Z,5.10
2018-12-06T12:58:20.275Z,6.53
2018-12-06T13:01:07.851Z,6.53
2018-12-06T13:03:55.547Z,6.33
2018-12-06T13:06:43.116Z,6.40
2018-12-06T13:09:30.726Z,5.10
2018-12-06T13:12:18.697Z,4.30
2018-12-06T13:15:06.927Z,4.33
2018-12-06T13:17:54.479Z,3.90
2018-12-06T13:20:42.112Z,3.97
2018-12-06T13:23:29.806Z,3.10
2018-12-06T13:26:17.687Z,2.80
2018-12-06T13:29:05.651Z,2.03
2018-12-06T13:31:53.576Z,2.67
2018-12-06T13:34:41.157Z,2.07
2018-12-06T13:37:28.795Z,3.40
2018-12-06T13:40:16.656Z,3.00
2018-12-06T13:43:04.218Z,2.97
2018-12-06T13:45:51.819Z,3.33
2018-12-06T13:48:39.671Z,3.30
2018-12-06T13:51:27.253Z,2.70
2018-12-06T13:54:15.094Z,2.27
2018-12-06T13:57:02.665Z,2.30
2018-12-06T13:59:50.488Z,2.73
2018-12-06T14:02:38.048Z,2.70
2018-12-06T14:05:25.632Z,2.83
2018-12-06T14:08:13.507Z,2.33
2018-12-06T14:11:01.083Z,2.00
2018-12-06T14:13:48.661Z,2.30
2018-12-06T14:16:36.242Z,3.50
2018-12-06T14:19:23.839Z,2.93
2018-12-06T14:22:11.419Z,3.33
2018-12-06T14:24:59.012Z,3.37
2018-12-06T14:27:46.844Z,3.43
2018-12-06T14:30:14.953Z,3.73
2018-12-06T14:32:44.733Z,3.73
2018-12-06T14:35:32.856Z,3.47
2018-12-06T14:38:20.424Z,3.87
2018-12-06T14:41:08.017Z,4.13
2018-12-06T14:43:55.924Z,4.20
2018-12-06T14:46:43.772Z,4.13
2018-12-06T14:49:31.609Z,3.70
2018-12-06T14:52:19.163Z,3.13
2018-12-06T14:55:06.805Z,3.00
2018-12-06T14:57:54.698Z,3.23
2018-12-06T15:00:42.278Z,4.03
2018-12-06T15:03:29.839Z,6.13
2018-12-06T15:06:17.404Z,4.37
2018-12-06T15:09:06.443Z,3.83
2018-12-06T15:11:54.065Z,3.10
2018-12-06T15:14:41.629Z,3.23
2018-12-06T15:17:29.195Z,3.23
2018-12-06T15:20:16.745Z,2.10
2018-12-06T15:23:04.316Z,3.17
2018-12-06T15:25:52.150Z,2.73
2018-12-06T15:28:39.709Z,3.03
2018-12-06T15:31:27.280Z,3.63
2018-12-06T15:34:14.824Z,3.40
2018-12-06T15:37:02.393Z,3.80
2018-12-06T15:39:50.304Z,4.07
2018-12-06T15:42:37.870Z,4.00
2018-12-06T15:45:25.420Z,4.67
2018-12-06T15:48:13.072Z,5.20
2018-12-06T15:51:02.699Z,5.00
2018-12-06T15:53:50.270Z,5.47
2018-12-06T15:56:37.839Z,5.20
2018-12-06T15:59:25.668Z,5.43
2018-12-06T16:02:13.228Z,5.43
2018-12-06T16:05:00.778Z,5.33
2018-12-06T16:07:48.334Z,5.00
2018-12-06T16:10:35.889Z,6.03
2018-12-06T16:13:23.435Z,5.50
2018-12-06T16:16:11.351Z,5.87
2018-12-06T16:18:59.209Z,6.30
2018-12-06T16:21:46.769Z,5.57
2018-12-06T16:24:34.335Z,5.13
2018-12-06T16:27:21.906Z,4.90
2018-12-06T16:30:09.548Z,5.00
2018-12-06T16:32:57.116Z,4.47
2018-12-06T16:35:46.443Z,3.90
2018-12-06T16:38:34.155Z,3.77
2018-12-06T16:41:21.706Z,3.10
2018-12-06T16:44:09.344Z,2.90
2018-12-06T16:46:56.960Z,2.80
2018-12-06T16:52:39.469Z,3.40
2018-12-06T16:55:28.124Z,3.70
2018-12-06T16:58:15.688Z,4.37
2018-12-06T17:01:03.259Z,3.73
2018-12-06T17:03:50.816Z,4.80
2018-12-06T17:06:38.362Z,5.33
2018-12-06T17:09:25.937Z,4.63
2018-12-06T17:12:13.823Z,4.73
2018-12-06T17:15:01.408Z,4.57
2018-12-06T17:17:48.971Z,5.10
2018-12-06T17:20:36.545Z,5.13
2018-12-06T17:23:24.128Z,5.53
2018-12-06T17:26:11.678Z,5.37
2018-12-06T17:28:59.231Z,5.97
2018-12-06T17:31:46.826Z,5.70
2018-12-06T17:34:34.379Z,6.23
2018-12-06T17:37:21.957Z,5.40
2018-12-06T17:40:09.525Z,4.80
2018-12-06T17:42:57.527Z,5.83
2018-12-06T17:45:45.469Z,6.27
2018-12-06T17:48:33.335Z,5.20
2018-12-06T17:51:20.879Z,6.40
2018-12-06T17:54:08.451Z,5.03
2018-12-06T17:56:55.999Z,6.00
2018-12-06T17:59:43.863Z,4.67
2018-12-06T18:02:31.415Z,5.70
2018-12-06T18:05:18.975Z,5.50
2018-12-06T18:08:26.234Z,5.93
2018-12-06T18:11:13.795Z,5.80
2018-12-06T18:14:01.367Z,6.80
2018-12-06T18:16:48.918Z,6.17
2018-12-06T18:19:36.479Z,5.33
2018-12-06T18:22:24.043Z,5.90
2018-12-06T18:25:11.606Z,5.30
2018-12-06T18:27:59.154Z,5.00
2018-12-06T18:30:47.093Z,5.70
2018-12-06T18:33:36.146Z,4.80
2018-12-06T18:36:23.712Z,5.03
2018-12-06T18:39:11.268Z,4.97
2018-12-06T18:41:59.110Z,5.10
2018-12-06T18:44:46.683Z,5.40
2018-12-06T18:47:34.224Z,5.30
2018-12-06T18:50:21.778Z,5.60
2018-12-06T18:56:05.460Z,5.83
2018-12-06T18:58:53.023Z,5.70
2018-12-06T19:01:40.598Z,6.03
2018-12-06T19:04:21.351Z,6.57
2018-12-06T19:07:02.017Z,6.20
2018-12-06T19:09:42.298Z,6.30
2018-12-06T19:12:22.767Z,8.03
2018-12-06T19:15:03.348Z,7.83
2018-12-06T19:17:44.662Z,7.10
2018-12-06T19:20:25.682Z,6.80
2018-12-06T19:23:06.245Z,7.77
2018-12-06T19:25:47.352Z,7.03
2018-12-06T19:28:27.654Z,6.27
2018-12-06T19:31:07.998Z,6.40
2018-12-06T19:33:48.682Z,6.07
2018-12-06T19:36:29.705Z,5.10
2018-12-06T19:39:10.451Z,4.67
2018-12-06T19:41:50.892Z,5.17
2018-12-06T19:44:31.859Z,5.20
2018-12-06T19:47:13.026Z,4.70
2018-12-06T19:49:54.103Z,4.13
2018-12-06T19:52:34.842Z,3.60
2018-12-06T19:55:13.539Z,4.90
2018-12-06T19:58:01.418Z,4.10
2018-12-06T20:00:49.356Z,4.23
2018-12-06T20:03:37.188Z,4.60
2018-12-06T20:06:25.167Z,4.40
2018-12-06T20:09:13.067Z,4.47
2018-12-06T20:12:00.902Z,5.27
2018-12-06T20:14:48.454Z,4.43
2018-12-06T20:20:31.758Z,5.27
2018-12-06T20:23:19.299Z,4.00
2018-12-06T20:26:06.863Z,4.63
2018-12-06T20:28:54.422Z,4.97
2018-12-06T20:31:42.410Z,4.83
2018-12-06T20:37:28.575Z,4.80
2018-12-06T20:40:16.170Z,4.90
2018-12-06T20:43:03.722Z,4.50
2018-12-06T20:45:51.625Z,4.87
2018-12-06T20:48:39.314Z,3.80
2018-12-06T20:51:27.197Z,4.00
2018-12-06T20:54:14.743Z,4.00
2018-12-06T20:57:02.329Z,4.00
2018-12-06T20:59:49.879Z,3.90
2018-12-06T21:02:37.439Z,3.70
2018-12-06T21:05:25.087Z,3.40
2018-12-06T21:08:12.984Z,4.00
2018-12-06T21:11:00.559Z,3.83
2018-12-06T21:13:48.166Z,3.73
2018-12-06T21:16:35.867Z,3.40
2018-12-06T21:19:04.695Z,3.10
2018-12-06T21:21:52.270Z,3.63
2018-12-06T21:24:39.826Z,3.23
2018-12-06T21:27:27.414Z,3.83
2018-12-06T21:30:15.299Z,3.23
2018-12-06T21:33:03.131Z,4.97
2018-12-06T21:35:51.079Z,4.23
2018-12-06T21:38:38.642Z,3.90
2018-12-06T21:41:26.204Z,4.70
2018-12-06T21:44:14.656Z,4.30
2018-12-06T21:47:02.625Z,3.43
2018-12-06T21:49:50.303Z,4.67
2018-12-06T21:52:37.872Z,4.53
2018-12-06T21:55:25.729Z,4.13
2018-12-06T21:58:13.311Z,4.60
2018-12-06T22:01:00.858Z,5.00
2018-12-06T22:03:48.825Z,4.63
2018-12-06T22:06:36.394Z,4.60
2018-12-06T22:09:23.955Z,3.50
2018-12-06T22:12:11.519Z,3.97
2018-12-06T22:14:59.084Z,4.40
2018-12-06T22:17:46.650Z,4.37
2018-12-06T22:20:34.219Z,4.33
2018-12-06T22:23:22.558Z,4.60
2018-12-06T22:26:10.382Z,2.60
2018-12-06T22:28:58.631Z,3.20
2018-12-06T22:31:48.423Z,2.63
2018-12-06T22:34:36.062Z,3.07
2018-12-06T22:37:23.977Z,3.07
2018-12-06T22:40:11.715Z,2.90
2018-12-06T22:42:59.542Z,3.17
2018-12-06T22:45:52.392Z,3.50
2018-12-06T22:48:40.244Z,3.50
2018-12-06T22:51:27.812Z,4.27
2018-12-06T22:54:15.707Z,4.40
2018-12-06T22:57:03.547Z,4.23
2018-12-06T22:59:51.154Z,4.37
2018-12-06T23:02:38.706Z,3.70
2018-12-06T23:05:26.647Z,3.43
2018-12-06T23:08:14.207Z,4.80
2018-12-06T23:11:02.112Z,4.10
2018-12-06T23:16:42.948Z,3.90
2018-12-06T23:19:30.850Z,3.87
2018-12-06T23:22:18.393Z,4.10
2018-12-06T23:25:05.972Z,4.23
2018-12-06T23:27:53.782Z,4.17
2018-12-06T23:30:41.371Z,4.77
2018-12-06T23:33:32.079Z,5.00
2018-12-06T23:36:18.901Z,5.30
2018-12-06T23:39:07.378Z,4.77
2018-12-06T23:41:54.930Z,4.70
2018-12-06T23:44:43.116Z,4.57
2018-12-06T23:47:30.675Z,4.57
2018-12-06T23:50:18.247Z,5.10
2018-12-06T23:53:05.819Z,4.33
2018-12-06T23:55:53.391Z,4.67
2018-12-06T23:58:40.952Z,5.20
